sensor_id;sensor_type;location;lat;lon;timestamp;P1;durP1;ratioP1;P2;durP2;ratioP2
20511;SDS011;10414;52.074;5.126;2023-11-21T00:01:19;31.27;;;10.65;;
20511;SDS011;10414;52.074;5.126;2023-11-21T00:03:45;27.70;;;10.95;;
20511;SDS011;10414;52.074;5.126;2023-11-21T00:06:19;36.72;;;12.55;;
20511;SDS011;10414;52.074;5.126;2023-11-21T00:08:46;34.83;;;11.63;;
20511;SDS011;10414;52.074;5.126;2023-11-21T00:11:13;41.55;;;11.50;;
20511;SDS011;10414;52.074;5.126;2023-11-21T00:13:40;42.08;;;12.40;;
20511;SDS011;10414;52.074;5.126;2023-11-21T00:16:06;27.83;;;11.10;;
20511;SDS011;10414;52.074;5.126;2023-11-21T00:18:35;30.55;;;10.45;;
20511;SDS011;10414;52.074;5.126;2023-11-21T00:21:02;31.00;;;10.85;;
20511;SDS011;10414;52.074;5.126;2023-11-21T00:23:29;27.70;;;9.82;;
20511;SDS011;10414;52.074;5.126;2023-11-21T00:25:56;28.42;;;11.05;;
20511;SDS011;10414;52.074;5.126;2023-11-21T00:28:23;29.73;;;10.65;;
20511;SDS011;10414;52.074;5.126;2023-11-21T00:30:50;29.10;;;10.07;;
20511;SDS011;10414;52.074;5.126;2023-11-21T00:33:17;35.55;;;10.02;;
20511;SDS011;10414;52.074;5.126;2023-11-21T00:35:45;30.27;;;11.80;;
20511;SDS011;10414;52.074;5.126;2023-11-21T00:38:12;31.60;;;11.15;;
20511;SDS011;10414;52.074;5.126;2023-11-21T00:40:39;30.65;;;9.90;;
20511;SDS011;10414;52.074;5.126;2023-11-21T00:43:06;37.40;;;10.95;;
20511;SDS011;10414;52.074;5.126;2023-11-21T00:45:35;29.58;;;9.63;;
20511;SDS011;10414;52.074;5.126;2023-11-21T00:48:03;30.92;;;10.98;;
20511;SDS011;10414;52.074;5.126;2023-11-21T00:50:30;28.52;;;10.35;;
20511;SDS011;10414;52.074;5.126;2023-11-21T00:52:59;31.63;;;10.77;;
20511;SDS011;10414;52.074;5.126;2023-11-21T00:55:27;27.35;;;10.98;;
20511;SDS011;10414;52.074;5.126;2023-11-21T00:57:55;28.40;;;9.70;;
20511;SDS011;10414;52.074;5.126;2023-11-21T01:00:23;31.40;;;10.55;;
20511;SDS011;10414;52.074;5.126;2023-11-21T01:02:50;29.85;;;10.57;;
20511;SDS011;10414;52.074;5.126;2023-11-21T01:05:23;34.17;;;10.48;;
20511;SDS011;10414;52.074;5.126;2023-11-21T01:07:50;26.33;;;10.40;;
20511;SDS011;10414;52.074;5.126;2023-11-21T01:10:20;28.42;;;10.07;;
20511;SDS011;10414;52.074;5.126;2023-11-21T01:12:47;28.85;;;10.43;;
20511;SDS011;10414;52.074;5.126;2023-11-21T01:15:14;26.17;;;9.95;;
20511;SDS011;10414;52.074;5.126;2023-11-21T01:17:41;33.42;;;10.60;;
20511;SDS011;10414;52.074;5.126;2023-11-21T01:20:08;28.25;;;10.15;;
20511;SDS011;10414;52.074;5.126;2023-11-21T01:22:37;28.63;;;10.25;;
20511;SDS011;10414;52.074;5.126;2023-11-21T01:25:07;28.85;;;10.85;;
20511;SDS011;10414;52.074;5.126;2023-11-21T01:30:03;28.90;;;10.32;;
20511;SDS011;10414;52.074;5.126;2023-11-21T01:32:32;28.42;;;10.93;;
20511;SDS011;10414;52.074;5.126;2023-11-21T01:34:59;26.15;;;9.98;;
20511;SDS011;10414;52.074;5.126;2023-11-21T01:37:26;30.48;;;10.68;;
20511;SDS011;10414;52.074;5.126;2023-11-21T01:39:53;28.30;;;9.85;;
20511;SDS011;10414;52.074;5.126;2023-11-21T01:42:21;27.27;;;9.52;;
20511;SDS011;10414;52.074;5.126;2023-11-21T01:44:50;27.05;;;10.50;;
20511;SDS011;10414;52.074;5.126;2023-11-21T01:49:46;26.83;;;9.50;;
20511;SDS011;10414;52.074;5.126;2023-11-21T01:52:13;29.90;;;9.70;;
20511;SDS011;10414;52.074;5.126;2023-11-21T01:54:42;23.67;;;9.73;;
20511;SDS011;10414;52.074;5.126;2023-11-21T01:57:10;27.35;;;9.82;;
20511;SDS011;10414;52.074;5.126;2023-11-21T01:59:37;26.48;;;10.27;;
20511;SDS011;10414;52.074;5.126;2023-11-21T02:02:11;28.90;;;10.48;;
20511;SDS011;10414;52.074;5.126;2023-11-21T02:04:38;28.38;;;10.05;;
20511;SDS011;10414;52.074;5.126;2023-11-21T02:07:06;23.38;;;9.35;;
20511;SDS011;10414;52.074;5.126;2023-11-21T02:09:36;28.38;;;9.77;;
20511;SDS011;10414;52.074;5.126;2023-11-21T02:12:07;25.98;;;9.52;;
20511;SDS011;10414;52.074;5.126;2023-11-21T02:14:35;26.63;;;9.70;;
20511;SDS011;10414;52.074;5.126;2023-11-21T02:17:02;26.40;;;9.98;;
20511;SDS011;10414;52.074;5.126;2023-11-21T02:19:31;22.75;;;9.68;;
20511;SDS011;10414;52.074;5.126;2023-11-21T02:21:58;32.20;;;9.68;;
20511;SDS011;10414;52.074;5.126;2023-11-21T02:24:31;29.10;;;10.00;;
20511;SDS011;10414;52.074;5.126;2023-11-21T02:26:58;29.48;;;9.60;;
20511;SDS011;10414;52.074;5.126;2023-11-21T02:29:25;25.25;;;8.88;;
20511;SDS011;10414;52.074;5.126;2023-11-21T02:31:53;23.30;;;8.95;;
20511;SDS011;10414;52.074;5.126;2023-11-21T02:34:21;28.05;;;9.98;;
20511;SDS011;10414;52.074;5.126;2023-11-21T02:36:51;29.45;;;9.95;;
20511;SDS011;10414;52.074;5.126;2023-11-21T02:39:18;24.92;;;8.93;;
20511;SDS011;10414;52.074;5.126;2023-11-21T02:41:49;24.52;;;9.07;;
20511;SDS011;10414;52.074;5.126;2023-11-21T02:44:16;26.63;;;9.60;;
20511;SDS011;10414;52.074;5.126;2023-11-21T02:46:43;25.35;;;10.25;;
20511;SDS011;10414;52.074;5.126;2023-11-21T02:49:10;29.10;;;9.38;;
20511;SDS011;10414;52.074;5.126;2023-11-21T02:51:37;27.60;;;9.40;;
20511;SDS011;10414;52.074;5.126;2023-11-21T02:54:19;28.10;;;8.93;;
20511;SDS011;10414;52.074;5.126;2023-11-21T02:56:48;24.48;;;9.23;;
20511;SDS011;10414;52.074;5.126;2023-11-21T02:59:17;22.77;;;9.75;;
20511;SDS011;10414;52.074;5.126;2023-11-21T03:01:44;23.30;;;9.23;;
20511;SDS011;10414;52.074;5.126;2023-11-21T03:04:11;25.33;;;9.10;;
20511;SDS011;10414;52.074;5.126;2023-11-21T03:06:42;24.77;;;8.95;;
20511;SDS011;10414;52.074;5.126;2023-11-21T03:09:09;24.58;;;9.55;;
20511;SDS011;10414;52.074;5.126;2023-11-21T03:11:37;26.77;;;9.73;;
20511;SDS011;10414;52.074;5.126;2023-11-21T03:14:08;30.33;;;9.57;;
20511;SDS011;10414;52.074;5.126;2023-11-21T03:16:35;24.48;;;8.95;;
20511;SDS011;10414;52.074;5.126;2023-11-21T03:19:04;25.98;;;10.05;;
20511;SDS011;10414;52.074;5.126;2023-11-21T03:21:33;28.55;;;9.15;;
20511;SDS011;10414;52.074;5.126;2023-11-21T03:24:00;23.25;;;9.32;;
20511;SDS011;10414;52.074;5.126;2023-11-21T03:26:26;25.00;;;9.40;;
20511;SDS011;10414;52.074;5.126;2023-11-21T03:28:54;21.90;;;8.85;;
20511;SDS011;10414;52.074;5.126;2023-11-21T03:31:22;27.15;;;9.75;;
20511;SDS011;10414;52.074;5.126;2023-11-21T03:33:49;20.08;;;9.23;;
20511;SDS011;10414;52.074;5.126;2023-11-21T03:36:18;26.05;;;10.15;;
20511;SDS011;10414;52.074;5.126;2023-11-21T03:38:45;24.17;;;9.07;;
20511;SDS011;10414;52.074;5.126;2023-11-21T03:41:14;22.55;;;8.63;;
20511;SDS011;10414;52.074;5.126;2023-11-21T03:43:41;23.40;;;8.93;;
20511;SDS011;10414;52.074;5.126;2023-11-21T03:46:08;26.05;;;9.38;;
20511;SDS011;10414;52.074;5.126;2023-11-21T03:48:36;21.55;;;9.48;;
20511;SDS011;10414;52.074;5.126;2023-11-21T03:51:03;24.90;;;8.73;;
20511;SDS011;10414;52.074;5.126;2023-11-21T03:53:30;29.42;;;8.77;;
20511;SDS011;10414;52.074;5.126;2023-11-21T03:55:57;24.40;;;9.43;;
20511;SDS011;10414;52.074;5.126;2023-11-21T03:58:24;22.70;;;8.65;;
20511;SDS011;10414;52.074;5.126;2023-11-21T04:00:51;21.42;;;8.93;;
20511;SDS011;10414;52.074;5.126;2023-11-21T04:03:17;25.02;;;8.52;;
20511;SDS011;10414;52.074;5.126;2023-11-21T04:05:46;24.15;;;9.20;;
20511;SDS011;10414;52.074;5.126;2023-11-21T04:08:15;22.83;;;9.60;;
20511;SDS011;10414;52.074;5.126;2023-11-21T04:10:42;21.23;;;9.15;;
20511;SDS011;10414;52.074;5.126;2023-11-21T04:13:09;21.35;;;8.52;;
20511;SDS011;10414;52.074;5.126;2023-11-21T04:15:36;25.42;;;9.57;;
20511;SDS011;10414;52.074;5.126;2023-11-21T04:18:03;23.52;;;9.25;;
20511;SDS011;10414;52.074;5.126;2023-11-21T04:20:30;26.02;;;9.13;;
20511;SDS011;10414;52.074;5.126;2023-11-21T04:23:04;26.70;;;9.23;;
20511;SDS011;10414;52.074;5.126;2023-11-21T04:25:30;24.10;;;9.27;;
20511;SDS011;10414;52.074;5.126;2023-11-21T04:28:00;25.83;;;10.20;;
20511;SDS011;10414;52.074;5.126;2023-11-21T04:30:29;24.65;;;9.60;;
20511;SDS011;10414;52.074;5.126;2023-11-21T04:32:57;24.60;;;9.07;;
20511;SDS011;10414;52.074;5.126;2023-11-21T04:35:25;23.67;;;9.60;;
20511;SDS011;10414;52.074;5.126;2023-11-21T04:37:51;23.35;;;9.43;;
20511;SDS011;10414;52.074;5.126;2023-11-21T04:40:20;27.58;;;9.88;;
20511;SDS011;10414;52.074;5.126;2023-11-21T04:42:47;26.27;;;9.23;;
20511;SDS011;10414;52.074;5.126;2023-11-21T04:45:14;21.42;;;8.75;;
20511;SDS011;10414;52.074;5.126;2023-11-21T04:47:50;25.50;;;9.60;;
20511;SDS011;10414;52.074;5.126;2023-11-21T04:50:18;30.17;;;9.68;;
20511;SDS011;10414;52.074;5.126;2023-11-21T04:52:45;28.63;;;9.52;;
20511;SDS011;10414;52.074;5.126;2023-11-21T04:55:12;29.02;;;9.73;;
20511;SDS011;10414;52.074;5.126;2023-11-21T04:57:41;27.55;;;9.38;;
20511;SDS011;10414;52.074;5.126;2023-11-21T05:00:09;25.95;;;8.93;;
20511;SDS011;10414;52.074;5.126;2023-11-21T05:02:40;19.73;;;8.57;;
20511;SDS011;10414;52.074;5.126;2023-11-21T05:05:08;21.50;;;8.13;;
20511;SDS011;10414;52.074;5.126;2023-11-21T05:07:40;23.70;;;9.43;;
20511;SDS011;10414;52.074;5.126;2023-11-21T05:10:08;24.88;;;8.05;;
20511;SDS011;10414;52.074;5.126;2023-11-21T05:12:37;22.67;;;9.07;;
20511;SDS011;10414;52.074;5.126;2023-11-21T05:15:06;27.30;;;8.68;;
20511;SDS011;10414;52.074;5.126;2023-11-21T05:17:35;23.98;;;9.02;;
20511;SDS011;10414;52.074;5.126;2023-11-21T05:20:04;19.45;;;8.10;;
20511;SDS011;10414;52.074;5.126;2023-11-21T05:22:34;21.30;;;8.38;;
20511;SDS011;10414;52.074;5.126;2023-11-21T05:25:01;22.60;;;9.00;;
20511;SDS011;10414;52.074;5.126;2023-11-21T05:27:30;18.33;;;8.50;;
20511;SDS011;10414;52.074;5.126;2023-11-21T05:29:57;25.00;;;8.73;;
20511;SDS011;10414;52.074;5.126;2023-11-21T05:32:25;24.45;;;8.30;;
20511;SDS011;10414;52.074;5.126;2023-11-21T05:34:52;30.40;;;9.30;;
20511;SDS011;10414;52.074;5.126;2023-11-21T05:37:19;23.23;;;9.10;;
20511;SDS011;10414;52.074;5.126;2023-11-21T05:39:46;21.35;;;8.73;;
20511;SDS011;10414;52.074;5.126;2023-11-21T05:42:13;26.40;;;9.55;;
20511;SDS011;10414;52.074;5.126;2023-11-21T05:44:41;23.98;;;7.82;;
20511;SDS011;10414;52.074;5.126;2023-11-21T05:47:09;19.90;;;8.23;;
20511;SDS011;10414;52.074;5.126;2023-11-21T05:49:39;22.50;;;9.45;;
20511;SDS011;10414;52.074;5.126;2023-11-21T05:52:06;22.35;;;8.70;;
20511;SDS011;10414;52.074;5.126;2023-11-21T05:54:35;22.73;;;8.00;;
20511;SDS011;10414;52.074;5.126;2023-11-21T05:57:02;21.02;;;7.72;;
20511;SDS011;10414;52.074;5.126;2023-11-21T05:59:29;19.05;;;8.73;;
20511;SDS011;10414;52.074;5.126;2023-11-21T06:01:56;24.85;;;8.68;;
20511;SDS011;10414;52.074;5.126;2023-11-21T06:04:23;23.42;;;9.38;;
20511;SDS011;10414;52.074;5.126;2023-11-21T06:06:52;28.90;;;9.30;;
20511;SDS011;10414;52.074;5.126;2023-11-21T06:09:22;30.15;;;9.57;;
20511;SDS011;10414;52.074;5.126;2023-11-21T06:11:50;30.65;;;9.43;;
20511;SDS011;10414;52.074;5.126;2023-11-21T06:14:17;31.25;;;9.20;;
20511;SDS011;10414;52.074;5.126;2023-11-21T06:16:43;32.33;;;9.57;;
20511;SDS011;10414;52.074;5.126;2023-11-21T06:19:11;26.92;;;9.68;;
20511;SDS011;10414;52.074;5.126;2023-11-21T06:21:38;24.45;;;8.93;;
20511;SDS011;10414;52.074;5.126;2023-11-21T06:24:06;25.20;;;8.98;;
20511;SDS011;10414;52.074;5.126;2023-11-21T06:26:33;29.55;;;10.13;;
20511;SDS011;10414;52.074;5.126;2023-11-21T06:29:00;23.33;;;9.57;;
20511;SDS011;10414;52.074;5.126;2023-11-21T06:31:28;28.92;;;10.65;;
20511;SDS011;10414;52.074;5.126;2023-11-21T06:33:58;32.33;;;11.20;;
20511;SDS011;10414;52.074;5.126;2023-11-21T06:36:25;27.33;;;9.60;;
20511;SDS011;10414;52.074;5.126;2023-11-21T06:38:52;29.02;;;10.65;;
20511;SDS011;10414;52.074;5.126;2023-11-21T06:41:21;29.45;;;10.05;;
20511;SDS011;10414;52.074;5.126;2023-11-21T06:43:48;27.33;;;10.35;;
20511;SDS011;10414;52.074;5.126;2023-11-21T06:46:15;28.48;;;10.65;;
20511;SDS011;10414;52.074;5.126;2023-11-21T06:48:47;29.38;;;11.57;;
20511;SDS011;10414;52.074;5.126;2023-11-21T06:51:14;25.00;;;11.52;;
20511;SDS011;10414;52.074;5.126;2023-11-21T06:53:42;29.08;;;10.70;;
20511;SDS011;10414;52.074;5.126;2023-11-21T06:56:15;21.85;;;9.57;;
20511;SDS011;10414;52.074;5.126;2023-11-21T06:58:43;30.95;;;10.75;;
20511;SDS011;10414;52.074;5.126;2023-11-21T07:01:11;30.75;;;10.02;;
20511;SDS011;10414;52.074;5.126;2023-11-21T07:03:38;30.00;;;10.52;;
20511;SDS011;10414;52.074;5.126;2023-11-21T07:06:06;33.20;;;11.00;;
20511;SDS011;10414;52.074;5.126;2023-11-21T07:08:36;29.15;;;10.20;;
20511;SDS011;10414;52.074;5.126;2023-11-21T07:11:09;29.38;;;10.50;;
20511;SDS011;10414;52.074;5.126;2023-11-21T07:13:36;32.70;;;11.00;;
20511;SDS011;10414;52.074;5.126;2023-11-21T07:16:04;32.60;;;11.18;;
20511;SDS011;10414;52.074;5.126;2023-11-21T07:18:34;30.10;;;10.73;;
20511;SDS011;10414;52.074;5.126;2023-11-21T07:21:01;25.17;;;9.57;;
20511;SDS011;10414;52.074;5.126;2023-11-21T07:23:28;29.15;;;10.05;;
20511;SDS011;10414;52.074;5.126;2023-11-21T07:25:57;28.58;;;10.65;;
20511;SDS011;10414;52.074;5.126;2023-11-21T07:28:28;23.50;;;9.80;;
20511;SDS011;10414;52.074;5.126;2023-11-21T07:30:55;23.77;;;9.90;;
20511;SDS011;10414;52.074;5.126;2023-11-21T07:33:23;26.80;;;9.43;;
20511;SDS011;10414;52.074;5.126;2023-11-21T07:35:50;24.50;;;9.02;;
20511;SDS011;10414;52.074;5.126;2023-11-21T07:38:20;22.27;;;9.13;;
20511;SDS011;10414;52.074;5.126;2023-11-21T07:40:47;22.02;;;8.38;;
20511;SDS011;10414;52.074;5.126;2023-11-21T07:43:16;24.55;;;8.80;;
20511;SDS011;10414;52.074;5.126;2023-11-21T07:45:44;23.55;;;9.40;;
20511;SDS011;10414;52.074;5.126;2023-11-21T07:48:11;19.73;;;7.88;;
20511;SDS011;10414;52.074;5.126;2023-11-21T07:50:39;21.42;;;7.47;;
20511;SDS011;10414;52.074;5.126;2023-11-21T07:53:06;20.48;;;7.72;;
20511;SDS011;10414;52.074;5.126;2023-11-21T07:55:33;17.83;;;7.93;;
20511;SDS011;10414;52.074;5.126;2023-11-21T07:58:01;20.08;;;6.20;;
20511;SDS011;10414;52.074;5.126;2023-11-21T08:00:34;22.08;;;7.10;;
20511;SDS011;10414;52.074;5.126;2023-11-21T08:03:03;18.45;;;6.25;;
20511;SDS011;10414;52.074;5.126;2023-11-21T08:05:30;15.05;;;6.28;;
20511;SDS011;10414;52.074;5.126;2023-11-21T08:07:58;20.33;;;7.00;;
20511;SDS011;10414;52.074;5.126;2023-11-21T08:10:26;28.85;;;9.05;;
20511;SDS011;10414;52.074;5.126;2023-11-21T08:13:02;15.10;;;5.60;;
20511;SDS011;10414;52.074;5.126;2023-11-21T08:15:28;13.18;;;5.13;;
20511;SDS011;10414;52.074;5.126;2023-11-21T08:17:56;13.88;;;5.00;;
20511;SDS011;10414;52.074;5.126;2023-11-21T08:20:23;14.95;;;4.68;;
20511;SDS011;10414;52.074;5.126;2023-11-21T08:22:50;14.68;;;5.00;;
20511;SDS011;10414;52.074;5.126;2023-11-21T08:25:19;18.45;;;5.60;;
20511;SDS011;10414;52.074;5.126;2023-11-21T08:27:47;14.93;;;4.82;;
20511;SDS011;10414;52.074;5.126;2023-11-21T08:30:14;12.65;;;4.60;;
20511;SDS011;10414;52.074;5.126;2023-11-21T08:32:41;17.10;;;5.65;;
20511;SDS011;10414;52.074;5.126;2023-11-21T08:35:08;17.90;;;5.50;;
20511;SDS011;10414;52.074;5.126;2023-11-21T08:37:37;16.88;;;5.63;;
20511;SDS011;10414;52.074;5.126;2023-11-21T08:40:04;18.67;;;5.57;;
20511;SDS011;10414;52.074;5.126;2023-11-21T08:42:35;17.50;;;5.43;;
20511;SDS011;10414;52.074;5.126;2023-11-21T08:45:12;17.65;;;5.78;;
20511;SDS011;10414;52.074;5.126;2023-11-21T08:47:38;18.55;;;6.43;;
20511;SDS011;10414;52.074;5.126;2023-11-21T08:50:06;25.70;;;7.55;;
20511;SDS011;10414;52.074;5.126;2023-11-21T08:52:33;18.65;;;5.78;;
20511;SDS011;10414;52.074;5.126;2023-11-21T08:55:02;15.68;;;4.75;;
20511;SDS011;10414;52.074;5.126;2023-11-21T08:57:32;20.35;;;5.80;;
20511;SDS011;10414;52.074;5.126;2023-11-21T09:00:01;21.55;;;6.07;;
20511;SDS011;10414;52.074;5.126;2023-11-21T09:02:30;17.02;;;6.15;;
20511;SDS011;10414;52.074;5.126;2023-11-21T09:04:59;23.35;;;6.70;;
20511;SDS011;10414;52.074;5.126;2023-11-21T09:07:29;20.50;;;7.13;;
20511;SDS011;10414;52.074;5.126;2023-11-21T09:09:56;15.52;;;5.35;;
20511;SDS011;10414;52.074;5.126;2023-11-21T09:12:26;16.05;;;6.43;;
20511;SDS011;10414;52.074;5.126;2023-11-21T09:14:55;13.73;;;5.40;;
20511;SDS011;10414;52.074;5.126;2023-11-21T09:17:24;15.38;;;5.28;;
20511;SDS011;10414;52.074;5.126;2023-11-21T09:19:50;13.55;;;5.45;;
20511;SDS011;10414;52.074;5.126;2023-11-21T09:22:17;14.00;;;5.63;;
20511;SDS011;10414;52.074;5.126;2023-11-21T09:24:44;15.68;;;5.80;;
20511;SDS011;10414;52.074;5.126;2023-11-21T09:27:11;15.60;;;6.07;;
20511;SDS011;10414;52.074;5.126;2023-11-21T09:32:12;15.52;;;5.80;;
20511;SDS011;10414;52.074;5.126;2023-11-21T09:34:43;16.45;;;5.90;;
20511;SDS011;10414;52.074;5.126;2023-11-21T09:37:11;15.35;;;5.63;;
20511;SDS011;10414;52.074;5.126;2023-11-21T09:39:38;19.70;;;6.20;;
20511;SDS011;10414;52.074;5.126;2023-11-21T09:42:08;14.80;;;6.10;;
20511;SDS011;10414;52.074;5.126;2023-11-21T09:44:42;15.27;;;5.65;;
20511;SDS011;10414;52.074;5.126;2023-11-21T09:47:14;14.73;;;6.25;;
20511;SDS011;10414;52.074;5.126;2023-11-21T09:49:43;15.20;;;6.03;;
20511;SDS011;10414;52.074;5.126;2023-11-21T09:52:15;15.48;;;5.85;;
20511;SDS011;10414;52.074;5.126;2023-11-21T09:54:51;14.05;;;5.88;;
20511;SDS011;10414;52.074;5.126;2023-11-21T09:57:22;11.38;;;5.30;;
20511;SDS011;10414;52.074;5.126;2023-11-21T09:59:51;13.70;;;5.75;;
20511;SDS011;10414;52.074;5.126;2023-11-21T10:02:20;13.27;;;5.13;;
20511;SDS011;10414;52.074;5.126;2023-11-21T10:04:55;11.30;;;5.65;;
20511;SDS011;10414;52.074;5.126;2023-11-21T10:07:25;12.32;;;4.47;;
20511;SDS011;10414;52.074;5.126;2023-11-21T10:09:56;10.90;;;4.65;;
20511;SDS011;10414;52.074;5.126;2023-11-21T10:12:24;11.88;;;4.43;;
20511;SDS011;10414;52.074;5.126;2023-11-21T10:14:54;10.57;;;4.90;;
20511;SDS011;10414;52.074;5.126;2023-11-21T10:17:25;12.05;;;4.45;;
20511;SDS011;10414;52.074;5.126;2023-11-21T10:19:57;10.50;;;4.93;;
20511;SDS011;10414;52.074;5.126;2023-11-21T10:22:24;13.68;;;5.00;;
20511;SDS011;10414;52.074;5.126;2023-11-21T10:24:51;10.05;;;4.22;;
20511;SDS011;10414;52.074;5.126;2023-11-21T10:27:21;9.82;;;3.90;;
20511;SDS011;10414;52.074;5.126;2023-11-21T10:29:48;9.55;;;3.72;;
20511;SDS011;10414;52.074;5.126;2023-11-21T10:32:17;12.07;;;4.83;;
20511;SDS011;10414;52.074;5.126;2023-11-21T10:34:56;11.50;;;5.00;;
20511;SDS011;10414;52.074;5.126;2023-11-21T10:37:26;9.85;;;4.43;;
20511;SDS011;10414;52.074;5.126;2023-11-21T10:39:56;14.18;;;4.63;;
20511;SDS011;10414;52.074;5.126;2023-11-21T10:42:29;13.38;;;4.05;;
20511;SDS011;10414;52.074;5.126;2023-11-21T10:44:58;11.18;;;4.30;;
20511;SDS011;10414;52.074;5.126;2023-11-21T10:47:28;13.87;;;4.00;;
20511;SDS011;10414;52.074;5.126;2023-11-21T10:49:56;10.02;;;4.55;;
20511;SDS011;10414;52.074;5.126;2023-11-21T10:52:26;9.52;;;3.40;;
20511;SDS011;10414;52.074;5.126;2023-11-21T10:54:56;9.25;;;3.78;;
20511;SDS011;10414;52.074;5.126;2023-11-21T10:57:28;10.13;;;3.80;;
20511;SDS011;10414;52.074;5.126;2023-11-21T10:59:56;9.27;;;3.25;;
20511;SDS011;10414;52.074;5.126;2023-11-21T11:02:23;6.75;;;2.88;;
20511;SDS011;10414;52.074;5.126;2023-11-21T11:04:53;10.70;;;4.28;;
20511;SDS011;10414;52.074;5.126;2023-11-21T11:07:23;8.25;;;3.38;;
20511;SDS011;10414;52.074;5.126;2023-11-21T11:09:52;11.38;;;4.07;;
20511;SDS011;10414;52.074;5.126;2023-11-21T11:12:19;11.88;;;4.80;;
20511;SDS011;10414;52.074;5.126;2023-11-21T11:14:47;10.38;;;3.75;;
20511;SDS011;10414;52.074;5.126;2023-11-21T11:17:14;12.23;;;4.45;;
20511;SDS011;10414;52.074;5.126;2023-11-21T11:19:41;10.35;;;4.07;;
20511;SDS011;10414;52.074;5.126;2023-11-21T11:22:14;11.75;;;4.90;;
20511;SDS011;10414;52.074;5.126;2023-11-21T11:25:01;11.60;;;4.82;;
20511;SDS011;10414;52.074;5.126;2023-11-21T11:27:40;13.65;;;5.65;;
20511;SDS011;10414;52.074;5.126;2023-11-21T11:30:16;14.25;;;5.43;;
20511;SDS011;10414;52.074;5.126;2023-11-21T11:32:54;14.30;;;6.28;;
20511;SDS011;10414;52.074;5.126;2023-11-21T11:35:33;14.88;;;5.65;;
20511;SDS011;10414;52.074;5.126;2023-11-21T11:38:06;15.10;;;5.95;;
20511;SDS011;10414;52.074;5.126;2023-11-21T11:40:40;16.13;;;6.90;;
20511;SDS011;10414;52.074;5.126;2023-11-21T11:43:11;13.88;;;6.28;;
20511;SDS011;10414;52.074;5.126;2023-11-21T11:45:38;16.92;;;6.50;;
20511;SDS011;10414;52.074;5.126;2023-11-21T11:50:41;16.38;;;6.15;;
20511;SDS011;10414;52.074;5.126;2023-11-21T11:53:32;17.58;;;7.32;;
20511;SDS011;10414;52.074;5.126;2023-11-21T11:58:49;19.42;;;7.60;;
20511;SDS011;10414;52.074;5.126;2023-11-21T12:01:18;21.15;;;7.65;;
20511;SDS011;10414;52.074;5.126;2023-11-21T12:03:47;16.77;;;7.25;;
20511;SDS011;10414;52.074;5.126;2023-11-21T12:06:56;14.88;;;6.72;;
20511;SDS011;10414;52.074;5.126;2023-11-21T12:09:27;18.48;;;7.20;;
20511;SDS011;10414;52.074;5.126;2023-11-21T12:11:57;15.88;;;6.82;;
20511;SDS011;10414;52.074;5.126;2023-11-21T12:14:28;15.55;;;6.35;;
20511;SDS011;10414;52.074;5.126;2023-11-21T12:16:58;19.70;;;7.37;;
20511;SDS011;10414;52.074;5.126;2023-11-21T12:19:25;19.83;;;7.80;;
20511;SDS011;10414;52.074;5.126;2023-11-21T12:21:52;18.58;;;8.02;;
20511;SDS011;10414;52.074;5.126;2023-11-21T12:24:20;18.08;;;7.22;;
20511;SDS011;10414;52.074;5.126;2023-11-21T12:26:48;14.63;;;5.55;;
20511;SDS011;10414;52.074;5.126;2023-11-21T12:29:17;14.48;;;5.95;;
20511;SDS011;10414;52.074;5.126;2023-11-21T12:34:15;13.55;;;5.75;;
20511;SDS011;10414;52.074;5.126;2023-11-21T12:36:44;17.27;;;6.50;;
20511;SDS011;10414;52.074;5.126;2023-11-21T12:39:11;16.42;;;6.30;;
20511;SDS011;10414;52.074;5.126;2023-11-21T12:41:39;16.70;;;7.20;;
20511;SDS011;10414;52.074;5.126;2023-11-21T12:44:09;17.35;;;6.95;;
20511;SDS011;10414;52.074;5.126;2023-11-21T12:46:41;18.83;;;8.48;;
20511;SDS011;10414;52.074;5.126;2023-11-21T12:49:10;18.58;;;7.57;;
20511;SDS011;10414;52.074;5.126;2023-11-21T12:51:44;19.70;;;7.97;;
20511;SDS011;10414;52.074;5.126;2023-11-21T12:54:12;22.20;;;8.80;;
20511;SDS011;10414;52.074;5.126;2023-11-21T12:56:39;22.88;;;9.23;;
20511;SDS011;10414;52.074;5.126;2023-11-21T12:59:06;18.65;;;8.02;;
20511;SDS011;10414;52.074;5.126;2023-11-21T13:01:36;16.77;;;7.55;;
20511;SDS011;10414;52.074;5.126;2023-11-21T13:04:07;18.33;;;7.60;;
20511;SDS011;10414;52.074;5.126;2023-11-21T13:06:35;17.75;;;7.57;;
20511;SDS011;10414;52.074;5.126;2023-11-21T13:09:06;15.18;;;6.97;;
20511;SDS011;10414;52.074;5.126;2023-11-21T13:11:35;16.05;;;7.45;;
20511;SDS011;10414;52.074;5.126;2023-11-21T13:14:06;17.80;;;7.70;;
20511;SDS011;10414;52.074;5.126;2023-11-21T13:16:33;16.02;;;6.68;;
20511;SDS011;10414;52.074;5.126;2023-11-21T13:19:02;15.50;;;7.57;;
20511;SDS011;10414;52.074;5.126;2023-11-21T13:21:35;16.90;;;7.03;;
20511;SDS011;10414;52.074;5.126;2023-11-21T13:24:05;16.40;;;6.70;;
20511;SDS011;10414;52.074;5.126;2023-11-21T13:26:32;12.20;;;5.55;;
20511;SDS011;10414;52.074;5.126;2023-11-21T13:28:59;13.68;;;6.00;;
20511;SDS011;10414;52.074;5.126;2023-11-21T13:31:28;13.68;;;5.38;;
20511;SDS011;10414;52.074;5.126;2023-11-21T13:33:56;14.40;;;6.22;;
20511;SDS011;10414;52.074;5.126;2023-11-21T13:36:30;13.40;;;6.50;;
20511;SDS011;10414;52.074;5.126;2023-11-21T13:39:01;11.50;;;4.78;;
20511;SDS011;10414;52.074;5.126;2023-11-21T13:41:32;12.02;;;4.68;;
20511;SDS011;10414;52.074;5.126;2023-11-21T13:44:03;10.25;;;4.57;;
20511;SDS011;10414;52.074;5.126;2023-11-21T13:46:40;11.25;;;4.18;;
20511;SDS011;10414;52.074;5.126;2023-11-21T13:49:07;11.40;;;3.90;;
20511;SDS011;10414;52.074;5.126;2023-11-21T13:51:35;11.63;;;4.60;;
20511;SDS011;10414;52.074;5.126;2023-11-21T13:54:08;13.98;;;6.30;;
20511;SDS011;10414;52.074;5.126;2023-11-21T13:56:35;8.27;;;3.15;;
20511;SDS011;10414;52.074;5.126;2023-11-21T13:59:02;8.48;;;3.20;;
20511;SDS011;10414;52.074;5.126;2023-11-21T14:01:38;7.85;;;3.25;;
20511;SDS011;10414;52.074;5.126;2023-11-21T14:04:19;8.38;;;2.95;;
20511;SDS011;10414;52.074;5.126;2023-11-21T14:07:00;6.85;;;2.78;;
20511;SDS011;10414;52.074;5.126;2023-11-21T14:09:45;10.10;;;3.05;;
20511;SDS011;10414;52.074;5.126;2023-11-21T14:12:17;9.40;;;3.40;;
20511;SDS011;10414;52.074;5.126;2023-11-21T14:14:43;6.70;;;2.83;;
20511;SDS011;10414;52.074;5.126;2023-11-21T14:17:12;9.75;;;3.33;;
20511;SDS011;10414;52.074;5.126;2023-11-21T14:19:39;8.57;;;3.85;;
20511;SDS011;10414;52.074;5.126;2023-11-21T14:22:08;8.80;;;3.67;;
20511;SDS011;10414;52.074;5.126;2023-11-21T14:24:35;10.15;;;4.00;;
20511;SDS011;10414;52.074;5.126;2023-11-21T14:27:07;12.02;;;3.83;;
20511;SDS011;10414;52.074;5.126;2023-11-21T14:29:37;17.05;;;6.88;;
20511;SDS011;10414;52.074;5.126;2023-11-21T14:32:08;17.45;;;6.53;;
20511;SDS011;10414;52.074;5.126;2023-11-21T14:34:35;18.60;;;6.13;;
20511;SDS011;10414;52.074;5.126;2023-11-21T14:37:03;17.42;;;7.70;;
20511;SDS011;10414;52.074;5.126;2023-11-21T14:39:30;19.90;;;8.45;;
20511;SDS011;10414;52.074;5.126;2023-11-21T14:42:04;19.58;;;7.57;;
20511;SDS011;10414;52.074;5.126;2023-11-21T14:44:34;21.80;;;8.35;;
20511;SDS011;10414;52.074;5.126;2023-11-21T14:47:05;23.80;;;9.93;;
20511;SDS011;10414;52.074;5.126;2023-11-21T14:49:39;23.60;;;9.82;;
20511;SDS011;10414;52.074;5.126;2023-11-21T14:52:17;23.77;;;9.70;;
20511;SDS011;10414;52.074;5.126;2023-11-21T14:55:00;25.25;;;10.32;;
20511;SDS011;10414;52.074;5.126;2023-11-21T14:57:46;24.05;;;9.63;;
20511;SDS011;10414;52.074;5.126;2023-11-21T15:00:17;24.52;;;10.90;;